createdAt,value
2019-02-14T00:00:44.557Z,65.10
2019-02-14T00:01:44.590Z,67.40
2019-02-14T00:02:44.546Z,67.10
2019-02-14T00:03:44.527Z,65.20
2019-02-14T00:04:44.513Z,63.70
2019-02-14T00:05:44.510Z,72.50
2019-02-14T00:06:44.510Z,69.80
2019-02-14T00:07:44.488Z,67.90
2019-02-14T00:08:44.472Z,69.20
2019-02-14T00:09:44.453Z,69.80
2019-02-14T00:10:44.451Z,68.90
2019-02-14T00:11:44.431Z,66.00
2019-02-14T00:12:44.450Z,71.60
2019-02-14T00:13:44.417Z,69.20
2019-02-14T00:14:44.421Z,67.10
2019-02-14T00:15:44.394Z,74.80
2019-02-14T00:16:44.376Z,62.30
2019-02-14T00:17:44.388Z,68.90
2019-02-14T00:18:44.352Z,63.50
2019-02-14T00:19:44.357Z,65.10
2019-02-14T00:20:44.336Z,68.20
2019-02-14T00:21:44.336Z,65.70
2019-02-14T00:22:44.351Z,69.90
2019-02-14T00:23:44.348Z,67.10
2019-02-14T00:24:44.297Z,65.90
2019-02-14T00:25:44.295Z,64.90
2019-02-14T00:26:44.264Z,67.20
2019-02-14T00:27:44.270Z,67.80
2019-02-14T00:28:44.247Z,69.80
2019-02-14T00:29:44.229Z,66.40
2019-02-14T00:30:44.231Z,63.00
2019-02-14T00:31:44.225Z,66.30
2019-02-14T00:32:44.231Z,72.60
2019-02-14T00:33:44.187Z,71.30
2019-02-14T00:34:44.186Z,63.60
2019-02-14T00:35:44.171Z,65.50
2019-02-14T00:36:44.165Z,63.60
2019-02-14T00:37:44.160Z,64.40
2019-02-14T00:38:44.155Z,63.10
2019-02-14T00:39:44.135Z,60.60
2019-02-14T00:40:44.107Z,59.90
2019-02-14T00:41:44.121Z,63.20
2019-02-14T00:42:44.103Z,62.10
2019-02-14T00:43:44.081Z,64.00
2019-02-14T00:44:44.075Z,64.70
2019-02-14T00:45:44.063Z,59.90
2019-02-14T00:46:44.065Z,62.60
2019-02-14T00:47:44.063Z,68.60
2019-02-14T00:48:44.020Z,64.00
2019-02-14T00:49:44.003Z,61.60
2019-02-14T00:50:44.028Z,66.60
2019-02-14T00:51:43.991Z,63.60
2019-02-14T00:52:43.982Z,60.30
2019-02-14T00:53:43.985Z,63.90
2019-02-14T00:54:43.956Z,60.10
2019-02-14T00:55:43.954Z,64.10
2019-02-14T00:56:43.943Z,67.30
2019-02-14T00:57:43.925Z,61.50
2019-02-14T00:58:43.936Z,59.70
2019-02-14T00:59:43.932Z,61.70
2019-02-14T01:00:43.894Z,64.80
2019-02-14T01:01:43.887Z,66.30
2019-02-14T01:02:43.865Z,67.30
2019-02-14T01:03:43.872Z,60.80
2019-02-14T01:04:43.848Z,64.70
2019-02-14T01:05:43.838Z,65.40
2019-02-14T01:06:43.832Z,63.70
2019-02-14T01:07:43.813Z,61.40
2019-02-14T01:08:43.819Z,65.80
2019-02-14T01:09:43.806Z,65.50
2019-02-14T01:10:43.786Z,61.60
2019-02-14T01:11:43.782Z,61.80
2019-02-14T01:12:43.763Z,64.40
2019-02-14T01:13:43.782Z,58.90
2019-02-14T01:14:43.736Z,66.20
2019-02-14T01:15:43.732Z,61.80
2019-02-14T01:16:43.713Z,64.60
2019-02-14T01:17:43.699Z,63.50
2019-02-14T01:18:43.710Z,62.10
2019-02-14T01:19:43.682Z,60.10
2019-02-14T01:20:43.661Z,61.60
2019-02-14T01:21:43.666Z,61.80
2019-02-14T01:22:43.662Z,64.20
2019-02-14T01:23:43.661Z,62.70
2019-02-14T01:24:43.620Z,57.70
2019-02-14T01:25:43.629Z,60.20
2019-02-14T01:26:43.605Z,59.30
2019-02-14T01:27:43.593Z,58.80
2019-02-14T01:28:43.598Z,61.60
2019-02-14T01:29:43.574Z,58.90
2019-02-14T01:30:43.554Z,61.40
2019-02-14T01:31:43.549Z,59.20
2019-02-14T01:32:43.548Z,57.00
2019-02-14T01:33:43.570Z,64.30
2019-02-14T01:34:43.526Z,63.10
2019-02-14T01:35:43.502Z,59.20
2019-02-14T01:36:43.494Z,64.20
2019-02-14T01:37:43.482Z,60.20
2019-02-14T01:38:43.495Z,60.10
2019-02-14T01:39:43.483Z,68.90
2019-02-14T01:40:43.447Z,62.10
2019-02-14T01:41:43.440Z,62.50
2019-02-14T01:42:43.440Z,61.50
2019-02-14T01:43:43.418Z,58.90
2019-02-14T01:44:43.436Z,59.90
2019-02-14T01:45:43.387Z,63.40
2019-02-14T01:46:43.373Z,55.90
2019-02-14T01:47:43.376Z,57.70
2019-02-14T01:48:43.353Z,59.30
2019-02-14T01:49:43.365Z,56.00
2019-02-14T01:50:43.343Z,64.20
2019-02-14T01:51:43.321Z,62.40
2019-02-14T01:52:43.313Z,61.60
2019-02-14T01:53:43.293Z,58.60
2019-02-14T01:54:43.311Z,56.80
2019-02-14T01:55:43.275Z,62.60
2019-02-14T01:56:43.277Z,65.00
2019-02-14T01:57:43.257Z,65.40
2019-02-14T01:58:43.259Z,57.90
2019-02-14T01:59:43.251Z,57.40
2019-02-14T02:00:43.223Z,61.70
2019-02-14T02:01:43.214Z,63.50
2019-02-14T02:02:43.197Z,66.70
2019-02-14T02:03:43.200Z,64.40
2019-02-14T02:04:43.193Z,66.30
2019-02-14T02:05:50.642Z,66.40
2019-02-14T02:06:44.159Z,59.90
2019-02-14T02:07:43.150Z,63.20
2019-02-14T02:08:43.133Z,65.10
2019-02-14T02:09:43.141Z,58.90
2019-02-14T02:10:43.117Z,57.10
2019-02-14T02:11:43.122Z,53.50
2019-02-14T02:12:43.087Z,55.70
2019-02-14T02:13:43.088Z,58.10
2019-02-14T02:14:43.100Z,60.20
2019-02-14T02:15:43.064Z,58.30
2019-02-14T02:16:43.052Z,54.20
2019-02-14T02:17:43.044Z,55.00
2019-02-14T02:18:43.028Z,52.80
2019-02-14T02:19:43.052Z,52.70
2019-02-14T02:20:43.007Z,53.90
2019-02-14T02:21:42.999Z,57.40
2019-02-14T02:22:42.987Z,58.20
2019-02-14T02:23:42.969Z,54.30
2019-02-14T02:24:42.965Z,57.30
2019-02-14T02:25:42.995Z,53.70
2019-02-14T02:26:42.936Z,53.20
2019-02-14T02:27:42.936Z,58.20
2019-02-14T02:28:42.912Z,51.70
2019-02-14T02:29:42.911Z,52.80
2019-02-14T02:30:42.915Z,58.90
2019-02-14T02:31:42.887Z,54.00
2019-02-14T02:32:42.872Z,56.70
2019-02-14T02:33:42.862Z,59.10
2019-02-14T02:34:42.860Z,53.60
2019-02-14T02:35:42.906Z,51.40
2019-02-14T02:36:42.821Z,50.30
2019-02-14T02:37:42.817Z,51.50
2019-02-14T02:38:42.802Z,51.20
2019-02-14T02:39:42.792Z,52.60
2019-02-14T02:40:42.804Z,47.60
2019-02-14T02:41:42.775Z,51.70
2019-02-14T02:42:42.754Z,51.30
2019-02-14T02:43:42.754Z,48.80
2019-02-14T02:44:42.754Z,47.90
2019-02-14T02:45:42.740Z,50.00
2019-02-14T02:46:42.716Z,48.00
2019-02-14T02:47:42.710Z,48.40
2019-02-14T02:48:42.707Z,48.80
2019-02-14T02:49:42.685Z,45.10
2019-02-14T02:50:42.705Z,48.80
2019-02-14T02:51:42.670Z,46.30
2019-02-14T02:52:42.661Z,46.10
2019-02-14T02:53:42.637Z,50.30
2019-02-14T02:54:42.628Z,51.20
2019-02-14T02:55:42.651Z,47.90
2019-02-14T02:56:42.615Z,44.30
2019-02-14T02:57:42.612Z,44.50
2019-02-14T02:58:42.588Z,48.00
2019-02-14T02:59:42.578Z,48.80
2019-02-14T03:00:42.590Z,49.60
2019-02-14T03:01:42.562Z,46.90
2019-02-14T03:02:42.542Z,46.60
2019-02-14T03:03:42.537Z,50.00
2019-02-14T03:04:42.525Z,47.60
2019-02-14T03:05:42.535Z,45.80
2019-02-14T03:06:42.496Z,45.30
2019-02-14T03:07:42.478Z,48.30
2019-02-14T03:08:42.473Z,49.20
2019-02-14T03:09:42.457Z,50.90
2019-02-14T03:10:42.449Z,47.60
2019-02-14T03:11:42.484Z,50.30
2019-02-14T03:12:42.432Z,42.90
2019-02-14T03:13:42.407Z,44.60
2019-02-14T03:14:42.406Z,44.80
2019-02-14T03:15:42.383Z,42.00
2019-02-14T03:16:42.396Z,45.70
2019-02-14T03:17:42.384Z,44.50
2019-02-14T03:18:42.377Z,44.60
2019-02-14T03:19:42.351Z,43.80
2019-02-14T03:20:42.334Z,46.70
2019-02-14T03:21:42.339Z,42.30
2019-02-14T03:22:42.311Z,44.10
2019-02-14T03:23:42.296Z,45.90
2019-02-14T03:24:42.297Z,44.50
2019-02-14T03:25:42.277Z,41.90
2019-02-14T03:26:42.286Z,45.80
2019-02-14T03:27:42.260Z,42.30
2019-02-14T03:28:42.259Z,48.40
2019-02-14T03:29:42.243Z,39.60
2019-02-14T03:30:42.236Z,41.00
2019-02-14T03:31:42.233Z,42.30
2019-02-14T03:32:42.213Z,44.60
2019-02-14T03:33:42.191Z,43.80
2019-02-14T03:34:42.198Z,41.80
2019-02-14T03:35:42.181Z,41.50
2019-02-14T03:36:42.177Z,44.40
2019-02-14T03:37:42.152Z,41.10
2019-02-14T03:38:42.138Z,42.00
2019-02-14T03:39:42.133Z,44.00
2019-02-14T03:40:42.118Z,42.90
2019-02-14T03:41:42.119Z,38.40
2019-02-14T03:42:42.103Z,41.50
2019-02-14T03:43:42.085Z,45.40
2019-02-14T03:44:42.079Z,41.20
2019-02-14T03:45:42.054Z,42.90
2019-02-14T03:46:42.073Z,39.60
2019-02-14T03:47:42.045Z,39.10
2019-02-14T03:48:42.039Z,39.00
2019-02-14T03:49:42.022Z,40.60
2019-02-14T03:50:42.012Z,41.10
2019-02-14T03:51:42.026Z,40.60
2019-02-14T03:52:41.976Z,41.20
2019-02-14T03:53:41.978Z,39.30
2019-02-14T03:54:41.972Z,40.40
2019-02-14T03:55:41.950Z,39.10
2019-02-14T03:56:41.948Z,42.10
2019-02-14T03:57:41.956Z,42.80
2019-02-14T03:58:41.927Z,39.50
2019-02-14T03:59:41.918Z,41.40
2019-02-14T04:00:41.891Z,39.10
2019-02-14T04:01:41.895Z,36.20
2019-02-14T04:02:41.900Z,40.20
2019-02-14T04:03:41.872Z,40.00
2019-02-14T04:04:41.852Z,40.90
2019-02-14T04:05:41.841Z,42.00
2019-02-14T04:06:41.832Z,42.00
2019-02-14T04:07:41.839Z,40.70
2019-02-14T04:08:41.807Z,41.10
2019-02-14T04:09:41.796Z,37.80
2019-02-14T04:10:41.796Z,39.20
2019-02-14T04:11:41.774Z,38.30
2019-02-14T04:12:41.792Z,38.70
2019-02-14T04:13:41.753Z,38.90
2019-02-14T04:14:41.749Z,39.70
2019-02-14T04:15:41.731Z,39.90
2019-02-14T04:16:41.711Z,37.90
2019-02-14T04:17:41.731Z,41.40
2019-02-14T04:18:41.702Z,38.90
2019-02-14T04:19:41.693Z,41.30
2019-02-14T04:20:41.676Z,37.10
2019-02-14T04:21:41.665Z,39.60
2019-02-14T04:22:41.662Z,39.30
2019-02-14T04:23:41.637Z,40.20
2019-02-14T04:24:41.635Z,36.80
2019-02-14T04:25:41.630Z,37.30
2019-02-14T04:26:41.612Z,36.60
2019-02-14T04:27:41.617Z,39.70
2019-02-14T04:28:41.581Z,37.70
2019-02-14T04:29:41.588Z,35.70
2019-02-14T04:30:41.564Z,33.30
2019-02-14T04:31:41.549Z,40.10
2019-02-14T04:32:41.556Z,40.10
2019-02-14T04:33:41.545Z,40.00
2019-02-14T04:34:41.515Z,39.20
2019-02-14T04:35:41.513Z,36.50
2019-02-14T04:36:41.499Z,38.80
2019-02-14T04:37:41.515Z,41.30
2019-02-14T04:38:41.471Z,39.70
2019-02-14T04:39:41.461Z,36.00
2019-02-14T04:40:41.458Z,35.50
2019-02-14T04:41:41.436Z,37.40
2019-02-14T04:42:41.447Z,38.90
2019-02-14T04:43:41.422Z,37.60
2019-02-14T04:44:41.401Z,38.20
2019-02-14T04:45:41.398Z,40.80
2019-02-14T04:46:41.436Z,38.70
2019-02-14T04:47:41.371Z,36.40
2019-02-14T04:48:41.377Z,36.90
2019-02-14T04:49:42.053Z,37.60
2019-02-14T04:50:41.344Z,34.40
2019-02-14T04:51:41.330Z,41.40
2019-02-14T04:52:41.322Z,39.60
2019-02-14T04:53:41.336Z,35.70
2019-02-14T04:54:41.291Z,35.70
2019-02-14T04:55:41.278Z,38.00
2019-02-14T04:56:41.292Z,33.90
2019-02-14T04:57:41.269Z,41.00
2019-02-14T04:58:41.281Z,36.10
2019-02-14T04:59:41.250Z,39.30
2019-02-14T05:00:42.827Z,36.80
2019-02-14T05:01:41.240Z,35.60
2019-02-14T05:02:41.202Z,34.20
2019-02-14T05:03:41.215Z,32.70
2019-02-14T05:04:41.187Z,36.60
2019-02-14T05:05:41.164Z,35.80
2019-02-14T05:06:44.352Z,36.50
2019-02-14T05:07:41.143Z,35.10
2019-02-14T05:08:41.145Z,37.60
2019-02-14T05:09:41.130Z,34.90
2019-02-14T05:10:41.129Z,38.90
2019-02-14T05:11:41.123Z,38.00
2019-02-14T05:12:41.092Z,33.20
2019-02-14T05:13:41.099Z,38.80
2019-02-14T05:14:41.088Z,32.60
2019-02-14T05:15:41.061Z,32.50
2019-02-14T05:16:41.088Z,34.00
2019-02-14T05:17:41.036Z,33.90
2019-02-14T05:18:41.054Z,35.90
2019-02-14T05:19:41.012Z,36.30
2019-02-14T05:20:41.014Z,38.70
2019-02-14T05:21:41.000Z,38.50
2019-02-14T05:22:40.991Z,35.60
2019-02-14T05:23:40.968Z,31.80
2019-02-14T05:24:40.992Z,35.30
2019-02-14T05:25:40.958Z,34.00
2019-02-14T05:26:40.938Z,36.20
2019-02-14T05:27:40.930Z,33.70
2019-02-14T05:28:40.920Z,36.60
2019-02-14T05:29:40.912Z,35.50
2019-02-14T05:30:40.886Z,33.50
2019-02-14T05:31:40.884Z,35.90
2019-02-14T05:32:40.873Z,33.30
2019-02-14T05:33:40.877Z,32.70
2019-02-14T05:34:40.913Z,39.50
2019-02-14T05:35:40.846Z,38.00
2019-02-14T05:36:40.840Z,38.30
2019-02-14T05:37:40.823Z,40.20
2019-02-14T05:38:40.814Z,35.80
2019-02-14T05:39:40.824Z,39.60
2019-02-14T05:40:40.776Z,38.30
2019-02-14T05:41:40.768Z,39.50
2019-02-14T05:42:40.775Z,38.20
2019-02-14T05:43:40.749Z,36.30
2019-02-14T05:44:40.756Z,39.10
2019-02-14T05:45:40.756Z,39.30
2019-02-14T05:46:40.715Z,36.90
2019-02-14T05:47:40.701Z,37.70
2019-02-14T05:48:40.691Z,34.70
2019-02-14T05:49:40.718Z,37.70
2019-02-14T05:50:40.688Z,40.50
2019-02-14T05:51:40.659Z,40.20
2019-02-14T05:52:40.652Z,37.10
2019-02-14T05:53:40.653Z,34.60
2019-02-14T05:54:40.645Z,36.80
2019-02-14T05:55:40.628Z,35.00
2019-02-14T05:56:40.635Z,40.50
2019-02-14T05:57:40.601Z,35.00
2019-02-14T05:58:40.588Z,36.60
2019-02-14T05:59:40.596Z,35.30
2019-02-14T06:00:40.568Z,35.40
2019-02-14T06:01:40.545Z,34.50
2019-02-14T06:02:40.541Z,36.80
2019-02-14T06:03:40.546Z,42.10
2019-02-14T06:04:40.545Z,37.30
2019-02-14T06:05:40.503Z,35.40
2019-02-14T06:06:40.501Z,37.90
2019-02-14T06:07:40.486Z,37.00
2019-02-14T06:08:40.480Z,38.80
2019-02-14T06:09:40.485Z,35.70
2019-02-14T06:10:40.470Z,33.10
2019-02-14T06:11:40.457Z,37.80
2019-02-14T06:12:40.444Z,34.60
2019-02-14T06:13:40.424Z,35.70
2019-02-14T06:14:40.431Z,37.90
2019-02-14T06:15:40.414Z,38.50
2019-02-14T06:16:40.389Z,40.80
2019-02-14T06:17:40.383Z,35.40
2019-02-14T06:18:40.361Z,35.70
2019-02-14T06:19:40.361Z,34.80
2019-02-14T06:20:40.366Z,38.10
2019-02-14T06:21:40.331Z,35.10
2019-02-14T06:22:40.333Z,36.40
2019-02-14T06:23:40.322Z,34.10
2019-02-14T06:24:40.301Z,35.90
2019-02-14T06:25:40.305Z,33.50
2019-02-14T06:26:40.284Z,38.10
2019-02-14T06:27:40.252Z,36.10
2019-02-14T06:28:40.254Z,36.40
2019-02-14T06:29:40.256Z,38.20
2019-02-14T06:30:40.249Z,34.50
2019-02-14T06:31:40.230Z,40.30
2019-02-14T06:32:40.214Z,36.20
2019-02-14T06:33:40.202Z,38.10
2019-02-14T06:34:40.216Z,35.50
2019-02-14T06:35:40.209Z,37.50
2019-02-14T06:36:40.242Z,34.30
2019-02-14T06:37:40.165Z,34.90
2019-02-14T06:38:40.146Z,37.20
2019-02-14T06:39:40.151Z,34.60
2019-02-14T06:40:40.148Z,33.70
2019-02-14T06:41:40.102Z,37.80
2019-02-14T06:42:40.097Z,36.20
2019-02-14T06:43:40.091Z,35.00
2019-02-14T06:44:40.074Z,40.40
2019-02-14T06:45:40.066Z,39.20
2019-02-14T06:46:40.077Z,36.30
2019-02-14T06:47:40.049Z,35.30
2019-02-14T06:48:40.049Z,42.30
2019-02-14T06:49:40.033Z,35.60
2019-02-14T06:50:40.018Z,36.80
2019-02-14T06:51:40.032Z,37.30
2019-02-14T06:52:40.471Z,34.50
2019-02-14T06:53:39.985Z,35.10
2019-02-14T06:54:40.000Z,40.20
2019-02-14T06:55:39.950Z,35.10
2019-02-14T06:56:39.963Z,37.60
2019-02-14T06:57:39.941Z,38.80
2019-02-14T06:58:39.962Z,37.60
2019-02-14T06:59:39.910Z,37.20
2019-02-14T07:00:39.901Z,37.60
2019-02-14T07:01:39.912Z,39.40
2019-02-14T07:02:39.881Z,41.40
2019-02-14T07:03:39.861Z,38.70
2019-02-14T07:04:39.847Z,42.00
2019-02-14T07:05:39.850Z,39.70
2019-02-14T07:06:39.858Z,34.60
2019-02-14T07:07:39.849Z,35.30
2019-02-14T07:08:39.840Z,40.40
2019-02-14T07:09:39.810Z,37.60
2019-02-14T07:10:39.785Z,40.70
2019-02-14T07:11:39.772Z,35.80
2019-02-14T07:12:39.786Z,41.20
2019-02-14T07:13:39.760Z,42.80
2019-02-14T07:14:39.738Z,39.20
2019-02-14T07:15:39.763Z,39.30
2019-02-14T07:16:39.717Z,40.10
2019-02-14T07:17:39.741Z,38.10
2019-02-14T07:18:39.712Z,39.00
2019-02-14T07:19:39.695Z,37.00
2019-02-14T07:20:39.709Z,34.60
2019-02-14T07:21:39.675Z,40.00
2019-02-14T07:22:39.669Z,39.10
2019-02-14T07:23:39.661Z,41.00
2019-02-14T07:24:39.629Z,35.60
2019-02-14T07:25:39.613Z,39.60
2019-02-14T07:26:39.614Z,37.30
2019-02-14T07:27:39.619Z,38.50
2019-02-14T07:28:39.586Z,40.10
2019-02-14T07:29:39.588Z,37.10
2019-02-14T07:30:39.575Z,40.40
2019-02-14T07:31:39.557Z,39.20
2019-02-14T07:32:39.553Z,40.10
2019-02-14T07:33:39.527Z,38.90
2019-02-14T07:34:39.581Z,39.90
2019-02-14T07:35:39.518Z,37.30
2019-02-14T07:36:39.513Z,38.30
2019-02-14T07:37:39.518Z,37.20
2019-02-14T07:38:39.481Z,39.00
2019-02-14T07:39:39.461Z,39.50
2019-02-14T07:40:39.449Z,39.90
2019-02-14T07:41:39.442Z,42.80
2019-02-14T07:42:39.428Z,38.90
2019-02-14T07:43:39.438Z,42.50
2019-02-14T07:44:39.401Z,37.20
2019-02-14T07:45:41.258Z,37.80
2019-02-14T07:46:39.383Z,41.40
2019-02-14T07:47:39.378Z,40.70
2019-02-14T07:48:39.373Z,38.00
2019-02-14T07:49:39.367Z,40.30
2019-02-14T07:50:39.341Z,39.30
2019-02-14T07:51:39.327Z,37.40
2019-02-14T07:52:39.330Z,40.60
2019-02-14T07:53:39.362Z,37.70
2019-02-14T07:54:39.304Z,36.30
2019-02-14T07:55:39.290Z,42.10
2019-02-14T07:56:39.266Z,40.50
2019-02-14T07:57:39.258Z,39.80
2019-02-14T07:58:39.288Z,37.90
2019-02-14T07:59:39.240Z,37.00
2019-02-14T08:00:39.242Z,39.80
2019-02-14T08:01:39.224Z,36.90
2019-02-14T08:02:39.200Z,41.00
2019-02-14T08:03:39.220Z,38.30
2019-02-14T08:04:39.206Z,39.00
2019-02-14T08:05:39.178Z,38.60
2019-02-14T08:06:39.177Z,44.30
2019-02-14T08:07:39.169Z,38.10
2019-02-14T08:08:39.144Z,38.80
2019-02-14T08:09:39.155Z,33.80
2019-02-14T08:10:39.120Z,44.10
2019-02-14T08:11:39.108Z,39.90
2019-02-14T08:12:39.103Z,36.70
2019-02-14T08:13:39.101Z,37.90
2019-02-14T08:14:39.105Z,38.30
2019-02-14T08:15:39.064Z,38.00
2019-02-14T08:16:39.056Z,37.30
2019-02-14T08:17:39.049Z,42.70
2019-02-14T08:18:39.056Z,37.30
2019-02-14T08:19:39.052Z,40.80
2019-02-14T08:20:39.015Z,38.50
2019-02-14T08:21:39.013Z,37.70
2019-02-14T08:22:38.987Z,40.50
2019-02-14T08:23:38.982Z,38.70
2019-02-14T08:24:38.976Z,40.70
2019-02-14T08:25:38.954Z,41.50
2019-02-14T08:26:38.945Z,37.50
2019-02-14T08:27:38.932Z,38.80
2019-02-14T08:28:38.925Z,38.00
2019-02-14T08:29:38.929Z,41.70
2019-02-14T08:30:38.893Z,37.30
2019-02-14T08:31:38.892Z,35.70
2019-02-14T08:32:38.867Z,38.50
2019-02-14T08:33:38.863Z,38.00
2019-02-14T08:34:38.881Z,36.10
2019-02-14T08:35:38.839Z,38.00
2019-02-14T08:36:38.839Z,40.40
2019-02-14T08:37:45.108Z,42.40
2019-02-14T08:38:39.819Z,40.10
2019-02-14T08:39:38.815Z,42.10
2019-02-14T08:40:38.802Z,38.90
2019-02-14T08:41:38.800Z,40.50
2019-02-14T08:42:38.773Z,37.00
2019-02-14T08:43:38.754Z,37.50
2019-02-14T08:44:38.785Z,39.30
2019-02-14T08:45:38.733Z,39.70
2019-02-14T08:46:38.727Z,42.10
2019-02-14T08:47:38.717Z,37.20
2019-02-14T08:48:38.709Z,44.60
2019-02-14T08:49:38.703Z,39.10
2019-02-14T08:50:38.669Z,39.60
2019-02-14T08:51:38.701Z,37.20
2019-02-14T08:52:38.664Z,40.10
2019-02-14T08:53:38.656Z,38.10
2019-02-14T08:54:38.668Z,36.70
2019-02-14T08:55:38.653Z,41.60
2019-02-14T08:56:38.623Z,39.20
2019-02-14T08:57:38.598Z,40.80
2019-02-14T08:58:38.595Z,37.50
2019-02-14T08:59:38.619Z,37.40
2019-02-14T09:00:38.579Z,41.20
2019-02-14T09:01:38.557Z,35.80
2019-02-14T09:02:38.555Z,36.60
2019-02-14T09:03:38.530Z,38.90
2019-02-14T09:04:38.531Z,38.80
2019-02-14T09:05:38.580Z,39.50
2019-02-14T09:06:38.537Z,40.30
2019-02-14T09:07:38.500Z,38.40
2019-02-14T09:08:38.487Z,36.90
2019-02-14T09:09:38.464Z,38.30
2019-02-14T09:10:38.479Z,41.70
2019-02-14T09:11:38.445Z,35.70
2019-02-14T09:12:38.437Z,39.00
2019-02-14T09:13:38.432Z,34.60
2019-02-14T09:14:38.414Z,39.60
2019-02-14T09:15:38.415Z,38.80
2019-02-14T09:16:38.391Z,35.60
2019-02-14T09:17:38.379Z,37.80
2019-02-14T09:18:38.369Z,38.80
2019-02-14T09:19:38.379Z,34.00
2019-02-14T09:20:38.360Z,38.80
2019-02-14T09:21:38.346Z,33.50
2019-02-14T09:22:38.330Z,35.50
2019-02-14T09:23:38.335Z,34.30
2019-02-14T09:24:38.316Z,38.00
2019-02-14T09:25:38.398Z,36.70
2019-02-14T09:26:38.276Z,39.00
2019-02-14T09:27:38.275Z,34.70
2019-02-14T09:28:38.266Z,37.90
2019-02-14T09:29:38.250Z,34.80
2019-02-14T09:30:38.263Z,35.00
2019-02-14T09:31:38.224Z,32.00
2019-02-14T09:32:38.228Z,32.50
2019-02-14T09:33:38.210Z,35.20
2019-02-14T09:34:38.286Z,35.40
2019-02-14T09:35:38.195Z,36.70
2019-02-14T09:36:38.171Z,35.20
2019-02-14T09:37:38.163Z,34.90
2019-02-14T09:38:38.145Z,33.80
2019-02-14T09:39:40.949Z,34.50
2019-02-14T09:40:38.157Z,33.40
2019-02-14T09:41:38.122Z,33.40
2019-02-14T09:42:38.093Z,36.00
2019-02-14T09:43:38.099Z,32.80
2019-02-14T09:44:38.093Z,35.00
2019-02-14T09:45:38.089Z,32.90
2019-02-14T09:46:38.065Z,33.30
2019-02-14T09:47:38.050Z,30.40
2019-02-14T09:48:38.041Z,35.40
2019-02-14T09:49:38.033Z,31.60
2019-02-14T09:50:38.039Z,34.60
2019-02-14T09:51:38.014Z,32.40
2019-02-14T09:52:38.053Z,32.80
2019-02-14T09:53:38.005Z,33.10
2019-02-14T09:54:38.303Z,37.30
2019-02-14T09:55:37.964Z,29.50
2019-02-14T09:56:37.959Z,31.00
2019-02-14T09:57:37.985Z,31.40
2019-02-14T09:58:37.922Z,31.50
2019-02-14T09:59:37.923Z,31.20
2019-02-14T10:00:37.925Z,34.60
2019-02-14T10:01:37.908Z,31.80
2019-02-14T10:02:37.892Z,29.80
2019-02-14T10:03:37.881Z,34.50
2019-02-14T10:04:37.873Z,31.40
2019-02-14T10:05:37.853Z,31.40
2019-02-14T10:06:37.883Z,34.70
2019-02-14T10:07:37.836Z,34.60
2019-02-14T10:08:38.009Z,32.40
2019-02-14T10:09:37.838Z,32.50
2019-02-14T10:10:37.885Z,34.00
2019-02-14T10:11:37.804Z,36.30
2019-02-14T10:12:37.785Z,34.20
2019-02-14T10:13:37.767Z,33.80
2019-02-14T10:14:37.762Z,35.30
2019-02-14T10:15:37.737Z,33.10
2019-02-14T10:16:37.765Z,30.20
2019-02-14T10:17:37.716Z,31.30
2019-02-14T10:18:37.710Z,35.10
2019-02-14T10:19:37.705Z,32.70
2019-02-14T10:20:37.685Z,31.60
2019-02-14T10:21:37.708Z,36.10
2019-02-14T10:22:37.727Z,33.70
2019-02-14T10:23:37.655Z,38.20
2019-02-14T10:24:37.649Z,34.70
2019-02-14T10:25:37.625Z,34.40
2019-02-14T10:26:37.630Z,35.30
2019-02-14T10:27:37.604Z,34.40
2019-02-14T10:28:37.646Z,37.00
2019-02-14T10:29:37.585Z,35.10
2019-02-14T10:30:37.588Z,31.70
2019-02-14T10:31:37.604Z,30.90
2019-02-14T10:32:37.544Z,32.90
2019-02-14T10:33:37.542Z,33.40
2019-02-14T10:34:37.558Z,32.80
2019-02-14T10:35:37.524Z,32.20
2019-02-14T10:36:37.534Z,34.70
2019-02-14T10:37:37.497Z,32.00
2019-02-14T10:38:37.474Z,29.60
2019-02-14T10:39:37.469Z,30.40
2019-02-14T10:40:37.452Z,34.20
2019-02-14T10:41:37.467Z,31.60
2019-02-14T10:42:37.430Z,31.40
2019-02-14T10:43:37.409Z,30.60
2019-02-14T10:44:37.422Z,30.00
2019-02-14T10:45:37.408Z,31.40
2019-02-14T10:46:37.391Z,29.40
2019-02-14T10:47:37.395Z,26.70
2019-02-14T10:48:37.366Z,30.40
2019-02-14T10:49:37.363Z,27.20
2019-02-14T10:50:37.363Z,29.60
2019-02-14T10:51:37.333Z,31.00
2019-02-14T10:52:37.348Z,31.20
2019-02-14T10:53:37.314Z,31.90
2019-02-14T10:54:37.322Z,26.60
2019-02-14T10:55:37.298Z,27.10
2019-02-14T10:56:37.300Z,29.40
2019-02-14T10:57:37.302Z,26.60
2019-02-14T10:58:37.257Z,21.60
2019-02-14T10:59:37.260Z,25.70
2019-02-14T11:00:37.239Z,25.70
2019-02-14T11:01:37.240Z,28.50
2019-02-14T11:02:37.243Z,27.60
2019-02-14T11:03:37.222Z,28.90
2019-02-14T11:04:37.197Z,26.60
2019-02-14T11:05:37.190Z,28.10
2019-02-14T11:06:37.177Z,26.80
2019-02-14T11:07:37.263Z,28.90
2019-02-14T11:08:37.155Z,27.60
2019-02-14T11:09:37.147Z,28.30
2019-02-14T11:10:37.119Z,24.40
2019-02-14T11:11:37.110Z,25.70
2019-02-14T11:12:37.178Z,23.70
2019-02-14T11:13:37.131Z,24.20
2019-02-14T11:14:37.099Z,27.90
2019-02-14T11:15:37.095Z,26.10
2019-02-14T11:16:37.059Z,25.80
2019-02-14T11:17:37.073Z,28.70
2019-02-14T11:18:44.003Z,26.00
2019-02-14T11:19:38.035Z,26.70
2019-02-14T11:20:37.109Z,21.20
2019-02-14T11:21:37.013Z,22.60
2019-02-14T11:22:37.074Z,26.00
2019-02-14T11:23:36.988Z,22.80
2019-02-14T11:24:36.979Z,24.70
2019-02-14T11:25:36.971Z,29.70
2019-02-14T11:26:36.977Z,26.70
2019-02-14T11:27:36.987Z,24.50
2019-02-14T11:28:36.935Z,25.10
2019-02-14T11:29:36.929Z,25.80
2019-02-14T11:30:36.917Z,25.30
2019-02-14T11:31:36.905Z,24.00
2019-02-14T11:32:36.937Z,24.30
2019-02-14T11:33:36.881Z,23.40
2019-02-14T11:34:36.863Z,23.20
2019-02-14T11:35:36.846Z,20.40
2019-02-14T11:36:36.845Z,22.20
2019-02-14T11:37:36.850Z,23.80
2019-02-14T11:38:40.648Z,22.80
2019-02-14T11:39:36.800Z,22.50
2019-02-14T11:40:36.795Z,24.00
2019-02-14T11:41:36.797Z,24.10
2019-02-14T11:42:36.797Z,20.00
2019-02-14T11:43:36.759Z,22.00
2019-02-14T11:44:39.819Z,23.40
2019-02-14T11:45:36.745Z,24.30
2019-02-14T11:46:36.740Z,23.70
2019-02-14T11:47:36.729Z,23.30
2019-02-14T11:48:36.744Z,22.50
2019-02-14T11:49:36.704Z,26.60
2019-02-14T11:50:36.686Z,23.90
2019-02-14T11:51:36.682Z,28.40
2019-02-14T11:52:36.672Z,25.70
2019-02-14T11:53:36.667Z,22.50
2019-02-14T11:54:36.680Z,26.20
2019-02-14T11:55:36.624Z,25.50
2019-02-14T11:56:36.615Z,25.40
2019-02-14T11:57:36.629Z,29.20
2019-02-14T11:58:36.626Z,32.90
2019-02-14T11:59:36.590Z,30.10
2019-02-14T12:00:36.595Z,27.40
2019-02-14T12:01:36.568Z,29.70
2019-02-14T12:02:37.963Z,25.40
2019-02-14T12:03:36.571Z,28.00
2019-02-14T12:04:36.536Z,27.70
2019-02-14T12:05:36.532Z,27.50
2019-02-14T12:06:36.617Z,27.60
2019-02-14T12:07:36.518Z,29.30
2019-02-14T12:08:36.510Z,27.30
2019-02-14T12:09:36.474Z,25.50
2019-02-14T12:10:36.463Z,23.50
2019-02-14T12:11:36.473Z,28.30
2019-02-14T12:12:36.440Z,26.00
2019-02-14T12:13:36.488Z,27.50
2019-02-14T12:14:36.430Z,24.40
2019-02-14T12:15:36.411Z,28.50
2019-02-14T12:16:36.402Z,28.60
2019-02-14T12:17:36.402Z,29.20
2019-02-14T12:18:36.446Z,29.50
2019-02-14T12:19:36.369Z,23.30
2019-02-14T12:20:36.388Z,26.90
2019-02-14T12:21:36.378Z,24.90
2019-02-14T12:22:36.362Z,27.70
2019-02-14T12:23:36.382Z,27.40
2019-02-14T12:24:36.354Z,28.00
2019-02-14T12:25:36.302Z,26.60
2019-02-14T12:26:36.353Z,26.70
2019-02-14T12:27:36.363Z,27.50
2019-02-14T12:28:36.324Z,23.60
2019-02-14T12:29:36.274Z,23.50
2019-02-14T12:30:36.237Z,23.20
2019-02-14T12:31:36.227Z,24.20
2019-02-14T12:32:36.237Z,20.50
2019-02-14T12:33:36.237Z,23.70
2019-02-14T12:34:36.213Z,23.20
2019-02-14T12:35:36.181Z,22.00
2019-02-14T12:36:36.238Z,23.70
2019-02-14T12:37:36.180Z,23.10
2019-02-14T12:38:36.162Z,23.90
2019-02-14T12:39:36.233Z,23.50
2019-02-14T12:40:36.143Z,22.70
2019-02-14T12:41:36.123Z,23.10
2019-02-14T12:42:36.115Z,23.30
2019-02-14T12:43:36.097Z,24.10
2019-02-14T12:44:36.101Z,24.70
2019-02-14T12:45:36.071Z,26.30
2019-02-14T12:46:37.610Z,22.80
2019-02-14T12:47:36.111Z,22.30
2019-02-14T12:48:36.057Z,23.40
2019-02-14T12:49:36.060Z,24.60
2019-02-14T12:50:36.020Z,23.20
2019-02-14T12:51:36.005Z,22.60
2019-02-14T12:52:36.020Z,24.60